Time;durP1;ratioP1;P1;durP2;ratioP2;P2;SDS_P1;SDS_P2;PMS_P1;PMS_P2;Temp;Humidity;BMP_temperature;BMP_pressure;BME280_temperature;BME280_humidity;BME280_pressure;Samples;Min_cycle;Max_cycle;Signal;HPM_P1;HPM_P2
2022/08/19 00:02:14;;;;;;;11.88;3.30;;;;;;;-144.43;100.00;67396.00;5094018;28;20040;-60
2022/08/19 00:05:41;;;;;;;8.73;3.30;;;;;;;-144.43;100.00;67396.00;5094777;28;20402;-59
2022/08/19 00:09:08;;;;;;;9.25;3.08;;;;;;;-144.43;100.00;67396.00;5093312;28;20040;-60
2022/08/19 00:12:34;;;;;;;6.97;2.80;;;;;;;-144.43;100.00;67396.00;5094380;28;20509;-61
2022/08/19 00:15:59;;;;;;;8.50;2.80;;;;;;;-144.43;100.00;67396.00;5101429;28;20027;-61
2022/08/19 00:19:24;;;;;;;9.40;2.72;;;;;;;-144.43;100.00;67396.00;5102571;28;20115;-60
2022/08/19 00:22:51;;;;;;;7.70;2.70;;;;;;;-144.43;100.00;67396.00;5085819;28;20566;-59
2022/08/19 00:26:17;;;;;;;12.27;2.75;;;;;;;-144.43;100.00;67396.00;5085574;28;20494;-61
2022/08/19 00:29:42;;;;;;;8.82;3.08;;;;;;;-144.43;100.00;67396.00;5086412;28;20416;-61
2022/08/19 00:33:08;;;;;;;14.73;3.60;;;;;;;-144.43;100.00;67396.00;5084521;28;20111;-59
2022/08/19 00:36:33;;;;;;;9.85;2.95;;;;;;;-144.43;100.00;67396.00;5090843;28;20068;-61
2022/08/19 00:39:59;;;;;;;7.10;2.40;;;;;;;-144.43;100.00;67396.00;5087559;28;20040;-61
2022/08/19 00:43:26;;;;;;;7.70;2.15;;;;;;;-144.43;100.00;67396.00;5086747;28;20066;-61
2022/08/19 00:46:53;;;;;;;8.23;2.20;;;;;;;-144.43;100.00;67396.00;5089379;28;20036;-60
2022/08/19 00:50:24;;;;;;;11.32;2.40;;;;;;;-144.43;100.00;67396.00;5086022;28;20040;-62
2022/08/19 00:53:49;;;;;;;10.55;2.42;;;;;;;-144.43;100.00;67396.00;5090080;28;20081;-59
2022/08/19 00:57:17;;;;;;;11.80;2.55;;;;;;;-144.43;100.00;67396.00;5090432;28;20032;-62
2022/08/19 01:00:46;;;;;;;8.93;2.28;;;;;;;-144.43;100.00;67396.00;5088206;28;20034;-61
2022/08/19 01:04:17;;;;;;;7.32;2.30;;;;;;;-144.43;100.00;67396.00;5086490;28;20489;-62
2022/08/19 01:07:43;;;;;;;112.47;6.53;;;;;;;-144.43;100.00;67396.00;5085195;28;20522;-60
2022/08/19 01:11:13;;;;;;;8.65;2.30;;;;;;;-144.43;100.00;67396.00;5095007;28;20056;-61
2022/08/19 01:14:40;;;;;;;8.57;2.42;;;;;;;-144.43;100.00;67396.00;5086449;28;20036;-60
2022/08/19 01:18:09;;;;;;;7.95;2.40;;;;;;;-144.43;100.00;67396.00;5084316;28;20390;-60
2022/08/19 01:21:39;;;;;;;14.65;2.97;;;;;;;-144.43;100.00;67396.00;5080597;28;20067;-60
2022/08/19 01:25:04;;;;;;;11.27;4.88;;;;;;;-144.43;100.00;67396.00;5090520;28;20054;-61
2022/08/19 01:28:38;;;;;;;10.77;2.85;;;;;;;-144.43;100.00;67396.00;5082626;28;20050;-61
2022/08/19 01:32:04;;;;;;;6.97;2.20;;;;;;;-144.43;100.00;67396.00;5085700;28;20040;-61
2022/08/19 01:35:31;;;;;;;12.23;2.40;;;;;;;-144.43;100.00;67396.00;5080931;28;20288;-61
2022/08/19 01:38:59;;;;;;;11.57;2.40;;;;;;;-144.43;100.00;67396.00;5082806;28;20032;-61
2022/08/19 01:42:24;;;;;;;8.43;2.40;;;;;;;-144.43;100.00;67396.00;5081885;28;20495;-59
2022/08/19 01:45:50;;;;;;;7.30;2.20;;;;;;;-144.43;100.00;67396.00;5084284;28;20487;-61
2022/08/19 01:49:18;;;;;;;10.90;2.50;;;;;;;-144.43;100.00;67396.00;5083300;28;20032;-62
2022/08/19 01:52:44;;;;;;;13.95;2.65;;;;;;;-144.43;100.00;67396.00;5080367;28;20440;-61
2022/08/19 01:56:11;;;;;;;14.27;2.55;;;;;;;-144.43;100.00;67396.00;5081702;28;20032;-61
2022/08/19 01:59:43;;;;;;;13.68;2.88;;;;;;;-144.43;100.00;67396.00;5082290;28;20489;-61
2022/08/19 02:03:09;;;;;;;20.73;2.95;;;;;;;-144.43;100.00;67396.00;5087507;28;20035;-61
2022/08/19 02:06:34;;;;;;;13.20;3.10;;;;;;;-144.43;100.00;67396.00;5092245;28;20040;-60
2022/08/19 02:10:04;;;;;;;15.68;2.80;;;;;;;-144.43;100.00;67396.00;5088635;28;20367;-60
2022/08/19 02:13:29;;;;;;;64.50;5.63;;;;;;;-144.43;100.00;67396.00;5092258;28;20028;-61
2022/08/19 02:16:55;;;;;;;20.40;2.92;;;;;;;-144.43;100.00;67396.00;5093225;28;20028;-60
2022/08/19 02:20:22;;;;;;;14.48;2.40;;;;;;;-144.43;100.00;67396.00;5092883;28;20035;-61
2022/08/19 02:23:47;;;;;;;11.52;2.95;;;;;;;-144.43;100.00;67396.00;5091587;28;20036;-60
2022/08/19 02:27:13;;;;;;;7.97;2.40;;;;;;;-144.43;100.00;67396.00;5092478;28;20482;-61
2022/08/19 02:30:38;;;;;;;16.77;2.95;;;;;;;-144.43;100.00;67396.00;5086826;28;20072;-61
2022/08/19 02:34:04;;;;;;;22.35;3.20;;;;;;;-144.43;100.00;67396.00;5097575;28;20520;-59
2022/08/19 02:44:49;;;;;;;15.93;3.03;;;;;;;-144.43;100.00;67396.00;5089038;28;20655;-59
2022/08/19 02:48:18;;;;;;;20.23;3.55;;;;;;;-144.43;100.00;67396.00;5092161;28;20044;-59
2022/08/19 02:51:45;;;;;;;23.30;3.47;;;;;;;-144.43;100.00;67396.00;5092244;28;20035;-59
2022/08/19 02:55:11;;;;;;;21.00;3.10;;;;;;;-144.43;100.00;67396.00;5091016;28;20031;-62
2022/08/19 02:58:36;;;;;;;11.55;3.00;;;;;;;-144.43;100.00;67396.00;5092281;28;20036;-60
2022/08/19 03:02:01;;;;;;;;;;;;;;;-144.43;100.00;67396.00;5091823;28;20043;-60
2022/08/19 03:05:27;;;;;;;19.83;4.18;;;;;;;-144.43;100.00;67396.00;5091998;28;19915;-61
2022/08/19 03:08:53;;;;;;;19.70;3.10;;;;;;;-144.43;100.00;67396.00;5092644;28;20040;-60
2022/08/19 03:12:18;;;;;;;14.27;2.67;;;;;;;-144.43;100.00;67396.00;5091156;28;20032;-60
2022/08/19 03:19:18;;;;;;;10.05;2.00;;;;;;;-144.43;100.00;67396.00;5075834;28;20024;-60
2022/08/19 03:22:43;;;;;;;8.27;2.03;;;;;;;-144.43;100.00;67396.00;5091332;28;20073;-60
2022/08/19 03:26:09;;;;;;;10.00;2.08;;;;;;;-144.43;100.00;67396.00;5092126;28;20028;-60
2022/08/19 03:29:37;;;;;;;7.88;2.00;;;;;;;-144.43;100.00;67396.00;5085686;28;20020;-60
2022/08/19 03:33:03;;;;;;;10.07;2.10;;;;;;;-144.43;100.00;67396.00;5089028;28;20394;-59
2022/08/19 03:36:29;;;;;;;7.70;1.83;;;;;;;-144.43;100.00;67396.00;5094158;28;20082;-61
2022/08/19 03:39:56;;;;;;;12.13;2.03;;;;;;;-144.43;100.00;67396.00;5099862;28;20038;-61
2022/08/19 03:43:21;;;;;;;11.07;2.00;;;;;;;-144.43;100.00;67396.00;5096077;28;20040;-60
2022/08/19 03:46:48;;;;;;;25.17;2.95;;;;;;;-144.43;100.00;67396.00;5093971;28;20516;-61
2022/08/19 03:50:13;;;;;;;9.27;2.03;;;;;;;-144.43;100.00;67396.00;5095093;28;20040;-59
2022/08/19 03:53:39;;;;;;;;;;;;;;;-144.43;100.00;67396.00;5096507;28;20112;-61
2022/08/19 03:57:08;;;;;;;9.73;2.25;;;;;;;-144.43;100.00;67396.00;5096827;28;19994;-60
2022/08/19 04:00:35;;;;;;;12.98;2.20;;;;;;;-144.43;100.00;67396.00;5096643;28;20486;-60
2022/08/19 04:04:01;;;;;;;10.43;2.20;;;;;;;-144.43;100.00;67396.00;5092337;28;20457;-61
2022/08/19 04:07:28;;;;;;;17.73;3.25;;;;;;;-144.43;100.00;67396.00;5094121;28;20024;-61
2022/08/19 04:10:54;;;;;;;12.60;2.90;;;;;;;-144.43;100.00;67396.00;5094985;28;20068;-61
2022/08/19 04:14:20;;;;;;;15.48;3.67;;;;;;;-144.43;100.00;67396.00;5095777;28;20393;-60
2022/08/19 04:17:46;;;;;;;18.63;4.00;;;;;;;-144.43;100.00;67396.00;5095914;28;20062;-60
2022/08/19 04:21:16;;;;;;;19.30;4.72;;;;;;;-144.43;100.00;67396.00;5096276;28;20052;-61
2022/08/19 04:24:41;;;;;;;17.35;4.10;;;;;;;-144.43;100.00;67396.00;5096184;28;20113;-61
2022/08/19 04:28:09;;;;;;;21.77;4.38;;;;;;;-144.43;100.00;67396.00;5096205;28;20059;-61
2022/08/19 04:31:43;;;;;;;19.10;4.40;;;;;;;-144.43;100.00;67396.00;5096082;28;20047;-60
2022/08/19 04:35:09;;;;;;;14.18;3.90;;;;;;;-144.43;100.00;67396.00;5095914;28;20078;-61
2022/08/19 04:38:34;;;;;;;15.52;3.88;;;;;;;-144.43;100.00;67396.00;5095954;28;20062;-61
2022/08/19 04:46:04;;;;;;;15.40;3.28;;;;;;;-144.43;100.00;67396.00;5071256;28;20402;-59
2022/08/19 04:49:29;;;;;;;15.73;3.08;;;;;;;-144.43;100.00;67396.00;5095602;28;20553;-61
2022/08/19 04:52:55;;;;;;;11.07;2.78;;;;;;;-144.43;100.00;67396.00;5095606;28;20070;-61
2022/08/19 04:56:22;;;;;;;10.95;2.70;;;;;;;-144.43;100.00;67396.00;5095201;28;20039;-60
2022/08/19 04:59:48;;;;;;;9.35;2.45;;;;;;;-144.43;100.00;67396.00;5095150;28;20032;-61
2022/08/19 05:03:15;;;;;;;7.15;2.40;;;;;;;-144.43;100.00;67396.00;5094944;28;20385;-60
2022/08/19 05:06:42;;;;;;;8.25;2.15;;;;;;;-144.43;100.00;67396.00;5093425;28;20028;-61
2022/08/19 05:10:07;;;;;;;16.77;2.85;;;;;;;-144.43;100.00;67396.00;5095055;28;20032;-60
2022/08/19 05:13:33;;;;;;;26.10;3.67;;;;;;;-144.43;100.00;67396.00;5094767;28;20035;-59
2022/08/19 05:16:58;;;;;;;9.52;3.10;;;;;;;-144.43;100.00;67396.00;5094853;28;20047;-60
2022/08/19 05:24:09;;;;;;;10.23;3.20;;;;;;;-144.43;100.00;67396.00;5095233;28;20102;-61
2022/08/19 05:27:36;;;;;;;10.32;3.03;;;;;;;-144.43;100.00;67396.00;5095099;28;20047;-60
2022/08/19 05:31:01;;;;;;;110.95;11.25;;;;;;;-144.43;100.00;67396.00;5094871;28;20056;-59
2022/08/19 05:34:27;;;;;;;28.67;3.80;;;;;;;-144.43;100.00;67396.00;5094097;28;20474;-60
2022/08/19 05:37:54;;;;;;;66.30;6.32;;;;;;;-144.43;100.00;67396.00;5094137;28;20040;-62
2022/08/19 05:41:20;;;;;;;10.93;2.90;;;;;;;-144.43;100.00;67396.00;5079405;28;20035;-60
2022/08/19 05:44:46;;;;;;;19.17;3.25;;;;;;;-144.43;100.00;67396.00;5093932;28;20157;-60
2022/08/19 05:48:13;;;;;;;18.75;3.70;;;;;;;-144.43;100.00;67396.00;5093129;28;20043;-62
2022/08/19 05:51:40;;;;;;;25.20;4.55;;;;;;;-144.43;100.00;67396.00;5092534;28;20024;-60
2022/08/19 05:55:05;;;;;;;21.73;3.58;;;;;;;-144.43;100.00;67396.00;5092401;28;20043;-59
2022/08/19 05:58:32;;;;;;;12.48;3.20;;;;;;;-144.43;100.00;67396.00;5089278;28;20027;-62
2022/08/19 06:01:57;;;;;;;15.10;3.03;;;;;;;-144.43;100.00;67396.00;5092758;28;20039;-60
2022/08/19 06:05:23;;;;;;;16.25;3.75;;;;;;;-144.43;100.00;67396.00;5092454;28;20531;-60
2022/08/19 06:08:50;;;;;;;15.05;3.15;;;;;;;-144.43;100.00;67396.00;5091907;28;20036;-60
2022/08/19 06:12:15;;;;;;;18.48;3.75;;;;;;;-144.43;100.00;67396.00;5091425;28;20086;-62
2022/08/19 06:15:43;;;;;;;25.08;3.90;;;;;;;-144.43;100.00;67396.00;5093123;28;20075;-60
2022/08/19 06:19:10;;;;;;;344.30;22.42;;;;;;;-144.43;100.00;67396.00;5090694;28;20043;-59
2022/08/19 06:22:43;;;;;;;521.03;29.75;;;;;;;-144.43;100.00;67396.00;5092660;28;20394;-60
2022/08/19 06:26:11;;;;;;;181.45;11.85;;;;;;;-144.43;100.00;67396.00;5090401;28;20486;-59
2022/08/19 06:29:37;;;;;;;115.88;9.75;;;;;;;-144.43;100.00;67396.00;5091304;28;20042;-61
2022/08/19 06:33:03;;;;;;;94.13;8.35;;;;;;;-144.43;100.00;67396.00;5092553;28;20032;-60
2022/08/19 06:36:33;;;;;;;116.97;9.10;;;;;;;-144.43;100.00;67396.00;5092792;28;20028;-64
2022/08/19 06:40:04;;;;;;;156.38;11.02;;;;;;;-144.43;100.00;67396.00;5083861;28;20062;-62
2022/08/19 06:43:29;;;;;;;166.32;11.85;;;;;;;-144.43;100.00;67396.00;5084001;28;20118;-63
2022/08/19 06:46:55;;;;;;;198.10;14.65;;;;;;;-144.43;100.00;67396.00;5079242;28;20039;-61
2022/08/19 06:50:21;;;;;;;318.13;22.38;;;;;;;-144.43;100.00;67396.00;5090796;28;20040;-62
2022/08/19 06:53:50;;;;;;;360.63;24.63;;;;;;;-144.43;100.00;67396.00;5086761;28;20070;-59
2022/08/19 06:57:17;;;;;;;345.05;23.20;;;;;;;-144.43;100.00;67396.00;5092557;28;20516;-59
2022/08/19 07:00:43;;;;;;;272.92;18.60;;;;;;;-144.43;100.00;67396.00;5092808;28;20047;-60
2022/08/19 07:04:09;;;;;;;226.07;17.15;;;;;;;-144.43;100.00;67396.00;5075690;28;20498;-61
2022/08/19 07:07:35;;;;;;;238.30;16.17;;;;;;;-144.43;100.00;67396.00;5080175;28;20548;-61
2022/08/19 07:11:03;;;;;;;192.93;13.60;;;;;;;-144.43;100.00;67396.00;5092278;28;20387;-59
2022/08/19 07:14:28;;;;;;;164.68;11.43;;;;;;;-144.43;100.00;67396.00;5089283;28;20573;-61
2022/08/19 07:17:55;;;;;;;165.40;10.73;;;;;;;-144.43;100.00;67396.00;5087108;28;20035;-61
2022/08/19 07:21:22;;;;;;;137.00;9.80;;;;;;;-144.43;100.00;67396.00;5092352;28;20036;-59
2022/08/19 07:24:48;;;;;;;123.72;8.63;;;;;;;-144.43;100.00;67396.00;5092164;28;20044;-58
2022/08/19 07:28:13;;;;;;;141.68;9.90;;;;;;;-144.43;100.00;67396.00;5074425;28;20032;-61
2022/08/19 07:31:39;;;;;;;115.47;8.83;;;;;;;-144.43;100.00;67396.00;5079501;28;20036;-60
2022/08/19 07:35:06;;;;;;;97.78;7.20;;;;;;;-144.43;100.00;67396.00;5091975;28;20276;-61
2022/08/19 07:38:31;;;;;;;92.68;7.35;;;;;;;-144.43;100.00;67396.00;5075437;28;20028;-61
2022/08/19 07:41:58;;;;;;;88.50;6.97;;;;;;;-144.43;100.00;67396.00;5087334;28;20068;-60
2022/08/19 07:45:24;;;;;;;59.55;5.10;;;;;;;-144.43;100.00;67396.00;5099032;28;20033;-60
2022/08/19 07:48:50;;;;;;;60.33;5.07;;;;;;;-144.43;100.00;67396.00;5086341;28;20111;-59
2022/08/19 07:52:16;;;;;;;38.33;3.60;;;;;;;-144.43;100.00;67396.00;5088595;28;20502;-59
2022/08/19 07:55:41;;;;;;;25.55;2.45;;;;;;;-144.43;100.00;67396.00;5085086;28;20066;-60
2022/08/19 07:59:08;;;;;;;19.50;2.65;;;;;;;-144.43;100.00;67396.00;5090853;28;20398;-60
2022/08/19 08:02:34;;;;;;;28.67;2.67;;;;;;;-144.43;100.00;67396.00;5075803;28;20032;-59
2022/08/19 08:09:43;;;;;;;19.02;2.50;;;;;;;-144.43;100.00;67396.00;5091829;28;20028;-61
2022/08/19 08:13:08;;;;;;;13.73;2.55;;;;;;;-144.43;100.00;67396.00;5083270;28;20028;-60
2022/08/19 08:16:37;;;;;;;21.15;2.70;;;;;;;-144.43;100.00;67396.00;5091808;28;20032;-60
2022/08/19 08:20:06;;;;;;;26.15;2.60;;;;;;;-144.43;100.00;67396.00;5076521;28;20395;-59
2022/08/19 08:23:32;;;;;;;29.80;2.83;;;;;;;-144.43;100.00;67396.00;5095383;28;20506;-59
2022/08/19 08:26:59;;;;;;;23.10;3.30;;;;;;;-144.43;100.00;67396.00;5095599;28;20040;-59
2022/08/19 08:30:29;;;;;;;27.17;3.28;;;;;;;-144.43;100.00;67396.00;5078648;28;20058;-60
2022/08/19 08:33:54;;;;;;;27.83;3.92;;;;;;;-144.43;100.00;67396.00;5080205;28;20036;-60
2022/08/19 08:37:21;;;;;;;27.27;4.05;;;;;;;-144.43;100.00;67396.00;5095248;28;20139;-60
2022/08/19 08:40:49;;;;;;;28.67;3.47;;;;;;;-144.43;100.00;67396.00;5095032;28;20545;-59
2022/08/19 08:44:20;;;;;;;27.73;3.30;;;;;;;-144.43;100.00;67396.00;5094091;28;20057;-61
2022/08/19 08:47:50;;;;;;;28.55;3.15;;;;;;;-144.43;100.00;67396.00;5088797;28;20383;-59
2022/08/19 08:51:48;;;;;;;31.63;3.80;;;;;;;-144.43;100.00;67396.00;5095210;28;20517;-59
2022/08/19 08:55:21;;;;;;;36.38;3.95;;;;;;;-144.43;100.00;67396.00;5083283;28;20402;-61
2022/08/19 08:58:53;;;;;;;31.10;4.30;;;;;;;-144.43;100.00;67396.00;5095003;28;20029;-61
2022/08/19 09:02:18;;;;;;;28.35;4.05;;;;;;;-144.43;100.00;67396.00;5078351;28;20029;-61
2022/08/19 09:06:03;;;;;;;41.30;4.75;;;;;;;-144.43;100.00;67396.00;5088354;28;20047;-61
2022/08/19 09:09:39;;;;;;;33.65;4.90;;;;;;;-144.43;100.00;67396.00;5085387;28;20195;-60
2022/08/19 09:13:08;;;;;;;35.92;4.85;;;;;;;-144.43;100.00;67396.00;5086505;28;20036;-60
2022/08/19 09:16:40;;;;;;;40.08;5.43;;;;;;;-144.43;100.00;67396.00;5078108;28;20042;-60
2022/08/19 09:20:15;;;;;;;34.17;4.63;;;;;;;-144.43;100.00;67396.00;5094693;28;20072;-60
2022/08/19 09:23:43;;;;;;;36.88;4.80;;;;;;;-144.43;100.00;67396.00;5094171;28;20036;-61
2022/08/19 09:27:14;;;;;;;40.80;4.80;;;;;;;-144.43;100.00;67396.00;5093614;28;20032;-61
2022/08/19 09:30:40;;;;;;;41.15;4.97;;;;;;;-144.43;100.00;67396.00;5093491;28;20048;-59
2022/08/19 09:34:06;;;;;;;40.15;4.75;;;;;;;-144.43;100.00;67396.00;5077603;28;20127;-63
2022/08/19 09:37:31;;;;;;;38.40;4.80;;;;;;;-144.43;100.00;67396.00;5093981;28;20119;-62
2022/08/19 09:41:01;;;;;;;46.63;4.50;;;;;;;-144.43;100.00;67396.00;5093847;28;20110;-60
2022/08/19 09:44:26;;;;;;;34.58;4.38;;;;;;;-144.43;100.00;67396.00;5096562;28;20040;-61
2022/08/19 09:47:53;;;;;;;30.65;4.15;;;;;;;-144.43;100.00;67396.00;5079540;28;20048;-61
2022/08/19 09:51:24;;;;;;;26.58;3.80;;;;;;;-144.43;100.00;67396.00;5093707;28;20036;-60
2022/08/19 09:54:51;;;;;;;36.33;4.20;;;;;;;-144.43;100.00;67396.00;5087634;28;20169;-61
2022/08/19 09:58:17;;;;;;;34.90;4.38;;;;;;;-144.43;100.00;67396.00;5093727;28;20062;-62
2022/08/19 10:01:42;;;;;;;30.98;4.07;;;;;;;-144.43;100.00;67396.00;5087599;28;20036;-61
2022/08/19 10:08:52;;;;;;;29.55;3.67;;;;;;;-144.43;100.00;67396.00;5089626;28;20043;-60
2022/08/19 10:12:18;;;;;;;35.17;4.28;;;;;;;-144.43;100.00;67396.00;5093731;28;20086;-60
2022/08/19 10:15:43;;;;;;;;;;;;;;;-144.43;100.00;67396.00;5093785;28;20554;-61
2022/08/19 10:19:09;;;;;;;31.88;4.22;;;;;;;-144.43;100.00;67396.00;5076682;28;19923;-61
2022/08/19 10:22:37;;;;;;;28.52;4.15;;;;;;;-144.43;100.00;67396.00;5079894;28;20036;-59
2022/08/19 10:26:05;;;;;;;46.65;4.63;;;;;;;-144.43;100.00;67396.00;5093003;28;20768;-60
2022/08/19 10:29:34;;;;;;;35.78;4.30;;;;;;;-144.43;100.00;67396.00;5088399;28;20028;-61
2022/08/19 10:36:34;;;;;;;40.53;4.53;;;;;;;-144.43;100.00;67396.00;5071915;28;20035;-61
2022/08/19 10:40:01;;;;;;;30.67;4.40;;;;;;;-144.43;100.00;67396.00;5095308;28;20133;-61
2022/08/19 10:43:27;;;;;;;33.75;4.47;;;;;;;-144.43;100.00;67396.00;5093438;28;20040;-61
2022/08/19 10:46:52;;;;;;;34.85;4.47;;;;;;;-144.43;100.00;67396.00;5079233;28;20036;-61
2022/08/19 10:53:43;;;;;;;37.00;5.25;;;;;;;-144.43;100.00;67396.00;5073293;28;20131;-60
2022/08/19 10:57:08;;;;;;;35.40;4.88;;;;;;;-144.43;100.00;67396.00;5080872;28;20433;-61
2022/08/19 11:00:34;;;;;;;32.38;4.85;;;;;;;-144.43;100.00;67396.00;5092835;28;20036;-61
2022/08/19 11:04:00;;;;;;;35.95;5.30;;;;;;;-144.43;100.00;67396.00;5075909;28;20438;-59
2022/08/19 11:07:26;;;;;;;34.20;4.68;;;;;;;-144.43;100.00;67396.00;5078155;28;20295;-59
2022/08/19 11:10:55;;;;;;;44.35;4.60;;;;;;;-144.43;100.00;67396.00;5092729;28;20040;-59
2022/08/19 11:14:21;;;;;;;39.63;4.63;;;;;;;-144.43;100.00;67396.00;5092603;28;20040;-62
2022/08/19 11:17:47;;;;;;;34.65;4.38;;;;;;;-144.43;100.00;67396.00;5075852;28;20035;-61
2022/08/19 11:21:16;;;;;;;;;;;;;;;-144.43;100.00;67396.00;5080539;28;20036;-61
2022/08/19 11:24:42;;;;;;;34.13;4.47;;;;;;;-144.43;100.00;67396.00;5084227;28;19923;-61
2022/08/19 11:28:08;;;;;;;35.83;4.53;;;;;;;-144.43;100.00;67396.00;5088855;28;20037;-61
2022/08/19 11:31:38;;;;;;;32.30;4.70;;;;;;;-144.43;100.00;67396.00;5087089;28;20124;-61
2022/08/19 11:35:13;;;;;;;36.85;5.45;;;;;;;-144.43;100.00;67396.00;5070956;28;20045;-60
2022/08/19 11:38:38;;;;;;;34.90;5.13;;;;;;;-144.43;100.00;67396.00;5090022;28;20157;-60
2022/08/19 11:42:54;;;;;;;35.72;4.75;;;;;;;-144.43;100.00;67396.00;5091611;28;20089;-60
2022/08/19 11:45:51;;;;;;;41.63;9.05;;;;;;;-144.43;100.00;67396.00;5075310;28;20505;-61
2022/08/19 11:49:18;;;;;;;63.58;16.75;;;;;;;-144.43;100.00;67396.00;5079068;28;20115;-57
2022/08/19 11:52:44;;;;;;;44.25;13.77;;;;;;;-144.43;100.00;67396.00;5092101;28;20036;-59
2022/08/19 11:56:11;;;;;;;58.75;18.90;;;;;;;-144.43;100.00;67396.00;5078297;28;20058;-62
2022/08/19 11:59:37;;;;;;;51.55;9.07;;;;;;;-144.43;100.00;67396.00;5096030;28;20052;-62
2022/08/19 12:03:02;;;;;;;51.35;12.85;;;;;;;-144.43;100.00;67396.00;5096127;28;20036;-61
2022/08/19 12:06:29;;;;;;;54.07;6.80;;;;;;;-144.43;100.00;67396.00;5081108;28;20119;-59
2022/08/19 12:09:55;;;;;;;47.25;6.40;;;;;;;-144.43;100.00;67396.00;5095885;28;20115;-60
2022/08/19 12:13:20;;;;;;;39.45;5.60;;;;;;;-144.43;100.00;67396.00;5092949;28;20067;-58
2022/08/19 12:16:46;;;;;;;34.47;5.40;;;;;;;-144.43;100.00;67396.00;5095833;28;20047;-60
2022/08/19 12:20:13;;;;;;;44.92;5.35;;;;;;;-144.43;100.00;67396.00;5096032;28;20032;-61
2022/08/19 12:23:39;;;;;;;48.58;5.60;;;;;;;-144.43;100.00;67396.00;5079159;28;20047;-60
2022/08/19 12:27:04;;;;;;;44.25;5.03;;;;;;;-144.43;100.00;67396.00;5095769;28;20073;-60
2022/08/19 12:30:29;;;;;;;65.27;6.20;;;;;;;-144.43;100.00;67396.00;5095796;28;20119;-60
2022/08/19 12:33:55;;;;;;;35.97;5.60;;;;;;;-144.43;100.00;67396.00;5092156;28;20039;-60
2022/08/19 12:37:21;;;;;;;37.90;5.00;;;;;;;-144.43;100.00;67396.00;5088903;28;20036;-59
2022/08/19 12:40:47;;;;;;;43.63;5.35;;;;;;;-144.43;100.00;67396.00;5086732;28;20021;-60
2022/08/19 12:44:12;;;;;;;;;;;;;;;-144.43;100.00;67396.00;5099485;28;20114;-61
2022/08/19 12:47:37;;;;;;;33.38;4.80;;;;;;;-144.43;100.00;67396.00;5095079;28;20383;-61
2022/08/19 12:51:08;;;;;;;39.87;5.33;;;;;;;-144.43;100.00;67396.00;5093418;28;20436;-61
2022/08/19 12:54:33;;;;;;;34.20;4.82;;;;;;;-144.43;100.00;67396.00;5094622;28;21182;-61
2022/08/19 12:58:01;;;;;;;35.47;4.55;;;;;;;-144.43;100.00;67396.00;5092179;28;20115;-62
2022/08/19 13:01:30;;;;;;;29.75;4.25;;;;;;;-144.43;100.00;67396.00;5092499;28;20101;-61
2022/08/19 13:04:56;;;;;;;33.20;3.97;;;;;;;-144.43;100.00;67396.00;5094152;28;20478;-60
2022/08/19 13:08:24;;;;;;;31.20;4.57;;;;;;;-144.43;100.00;67396.00;5092867;28;20043;-61
2022/08/19 13:11:49;;;;;;;34.20;4.47;;;;;;;-144.43;100.00;67396.00;5093028;28;20036;-61
2022/08/19 13:15:16;;;;;;;32.30;3.92;;;;;;;-144.43;100.00;67396.00;5089816;28;20127;-62
2022/08/19 13:18:43;;;;;;;28.73;3.70;;;;;;;-144.43;100.00;67396.00;5091604;28;20094;-60
2022/08/19 13:22:09;;;;;;;24.73;3.40;;;;;;;-144.43;100.00;67396.00;5078179;28;20082;-60
2022/08/19 13:25:36;;;;;;;23.48;3.40;;;;;;;-144.43;100.00;67396.00;5094054;28;20305;-60
2022/08/19 13:36:29;;;;;;;23.83;3.45;;;;;;;-144.43;100.00;67396.00;5077958;28;20039;-59
2022/08/19 13:39:55;;;;;;;17.50;2.85;;;;;;;-144.43;100.00;67396.00;5091757;28;20036;-61
2022/08/19 13:43:24;;;;;;;18.45;2.83;;;;;;;-144.43;100.00;67396.00;5086114;28;20039;-61
2022/08/19 13:46:53;;;;;;;16.65;3.17;;;;;;;-144.43;100.00;67396.00;5082570;28;20426;-61
2022/08/19 13:50:20;;;;;;;17.38;2.38;;;;;;;-144.43;100.00;67396.00;5092980;28;20552;-60
2022/08/19 13:53:45;;;;;;;29.65;3.28;;;;;;;-144.43;100.00;67396.00;5077084;28;20036;-61
2022/08/19 13:57:13;;;;;;;22.13;3.47;;;;;;;-144.43;100.00;67396.00;5081428;28;20136;-60
2022/08/19 14:00:40;;;;;;;42.88;4.00;;;;;;;-144.43;100.00;67396.00;5093880;28;20024;-60
2022/08/19 14:04:05;;;;;;;19.27;3.38;;;;;;;-144.43;100.00;67396.00;5076713;28;20047;-60
2022/08/19 14:07:31;;;;;;;21.33;3.05;;;;;;;-144.43;100.00;67396.00;5086504;28;20185;-60
2022/08/19 14:10:57;;;;;;;56.42;4.65;;;;;;;-144.43;100.00;67396.00;5083267;28;20047;-60
2022/08/19 14:14:22;;;;;;;22.52;3.22;;;;;;;-144.43;100.00;67396.00;5093550;28;20031;-59
2022/08/19 14:17:48;;;;;;;27.77;3.58;;;;;;;-144.43;100.00;67396.00;5076471;28;20132;-60
2022/08/19 14:21:20;;;;;;;20.55;3.30;;;;;;;-144.43;100.00;67396.00;5080840;28;20142;-59
2022/08/19 14:24:47;;;;;;;23.50;3.58;;;;;;;-144.43;100.00;67396.00;5093443;28;20509;-59
2022/08/19 14:28:12;;;;;;;17.25;3.05;;;;;;;-144.43;100.00;67396.00;5093425;28;20036;-59
2022/08/19 14:31:40;;;;;;;18.48;3.53;;;;;;;-144.43;100.00;67396.00;5077083;28;20048;-60
2022/08/19 14:35:07;;;;;;;23.30;4.10;;;;;;;-144.43;100.00;67396.00;5092875;28;20028;-61
2022/08/19 14:38:33;;;;;;;20.58;3.08;;;;;;;-144.43;100.00;67396.00;5092329;28;20036;-59
2022/08/19 14:42:15;;;;;;;22.50;3.30;;;;;;;-144.43;100.00;67396.00;5107336;28;20088;-60
2022/08/19 14:45:41;;;;;;;16.65;3.28;;;;;;;-144.43;100.00;67396.00;5092820;28;20097;-59
2022/08/19 14:49:07;;;;;;;19.20;3.63;;;;;;;-144.43;100.00;67396.00;5092979;28;20032;-59
2022/08/19 14:52:33;;;;;;;14.18;2.65;;;;;;;-144.43;100.00;67396.00;5092634;28;20032;-60
2022/08/19 14:55:58;;;;;;;10.85;2.78;;;;;;;-144.43;100.00;67396.00;5076389;28;20490;-60
2022/08/19 14:59:24;;;;;;;10.37;2.23;;;;;;;-144.43;100.00;67396.00;5078565;28;20048;-60
2022/08/19 15:02:50;;;;;;;17.38;2.50;;;;;;;-144.43;100.00;67396.00;5093059;28;20272;-60
2022/08/19 15:06:15;;;;;;;13.52;2.17;;;;;;;-144.43;100.00;67396.00;5092792;28;20036;-60
2022/08/19 15:09:42;;;;;;;13.90;2.35;;;;;;;-144.43;100.00;67396.00;5091361;28;20115;-59
2022/08/19 15:13:09;;;;;;;18.30;2.42;;;;;;;-144.43;100.00;67396.00;5084430;28;20140;-61
2022/08/19 15:16:39;;;;;;;12.80;2.58;;;;;;;-144.43;100.00;67396.00;5092238;28;20110;-61
2022/08/19 15:20:05;;;;;;;15.55;2.55;;;;;;;-144.43;100.00;67396.00;5090636;28;20080;-62
2022/08/19 15:23:30;;;;;;;;;;;;;;;-144.43;100.00;67396.00;5073920;28;20032;-61
2022/08/19 15:26:55;;;;;;;20.52;3.15;;;;;;;-144.43;100.00;67396.00;5091623;28;19916;-61
2022/08/19 15:30:25;;;;;;;16.60;3.60;;;;;;;-144.43;100.00;67396.00;5090887;28;20024;-61
2022/08/19 15:33:51;;;;;;;16.95;3.38;;;;;;;-144.43;100.00;67396.00;5089830;28;20475;-59
2022/08/19 15:37:16;;;;;;;59.20;6.93;;;;;;;-144.43;100.00;67396.00;5090524;28;20085;-61
2022/08/19 15:40:41;;;;;;;10.85;3.17;;;;;;;-144.43;100.00;67396.00;5097305;28;20136;-60
2022/08/19 15:44:09;;;;;;;28.35;4.15;;;;;;;-144.43;100.00;67396.00;5088761;28;20422;-60
2022/08/19 15:47:36;;;;;;;36.88;4.80;;;;;;;-144.43;100.00;67396.00;5086941;28;20449;-61
2022/08/19 15:51:10;;;;;;;29.33;4.40;;;;;;;-144.43;100.00;67396.00;5075558;28;20024;-61
2022/08/19 15:54:35;;;;;;;13.52;3.80;;;;;;;-144.43;100.00;67396.00;5086174;28;20032;-62
2022/08/19 16:09:13;;;;;;;17.58;3.42;;;;;;;-144.43;100.00;67396.00;5081431;28;20105;-61
2022/08/19 16:12:40;;;;;;;17.25;3.60;;;;;;;-144.43;100.00;67396.00;5077612;28;20024;-61
2022/08/19 16:16:07;;;;;;;21.60;4.50;;;;;;;-144.43;100.00;67396.00;5079831;28;20101;-60
2022/08/19 16:19:32;;;;;;;20.00;4.28;;;;;;;-144.43;100.00;67396.00;5079543;28;20112;-61
2022/08/19 16:22:58;;;;;;;14.30;3.35;;;;;;;-144.43;100.00;67396.00;5077140;28;20036;-60